sensor_id;sensor_type;location;lat;lon;timestamp;P1;durP1;ratioP1;P2;durP2;ratioP2
17259;SDS011;8746;49.230;9.220;2023-06-01T00:00:30;2.10;;;1.90;;
17259;SDS011;8746;49.230;9.220;2023-06-01T00:02:56;3.00;;;2.63;;
17259;SDS011;8746;49.230;9.220;2023-06-01T00:05:21;5.20;;;2.73;;
17259;SDS011;8746;49.230;9.220;2023-06-01T00:07:46;2.20;;;2.00;;
17259;SDS011;8746;49.230;9.220;2023-06-01T00:10:12;4.23;;;2.17;;
17259;SDS011;8746;49.230;9.220;2023-06-01T00:12:37;2.23;;;2.03;;
17259;SDS011;8746;49.230;9.220;2023-06-01T00:15:03;3.17;;;2.10;;
17259;SDS011;8746;49.230;9.220;2023-06-01T00:17:28;4.70;;;2.40;;
17259;SDS011;8746;49.230;9.220;2023-06-01T00:19:55;4.23;;;2.40;;
17259;SDS011;8746;49.230;9.220;2023-06-01T00:22:21;6.23;;;2.53;;
17259;SDS011;8746;49.230;9.220;2023-06-01T00:24:48;3.10;;;2.20;;
17259;SDS011;8746;49.230;9.220;2023-06-01T00:27:14;7.17;;;2.43;;
17259;SDS011;8746;49.230;9.220;2023-06-01T00:29:39;4.87;;;2.13;;
17259;SDS011;8746;49.230;9.220;2023-06-01T00:32:05;5.00;;;2.27;;
17259;SDS011;8746;49.230;9.220;2023-06-01T00:34:31;2.33;;;2.07;;
17259;SDS011;8746;49.230;9.220;2023-06-01T00:36:56;4.23;;;2.20;;
17259;SDS011;8746;49.230;9.220;2023-06-01T00:39:21;4.47;;;2.30;;
17259;SDS011;8746;49.230;9.220;2023-06-01T00:41:47;4.60;;;2.40;;
17259;SDS011;8746;49.230;9.220;2023-06-01T00:44:12;3.10;;;2.40;;
17259;SDS011;8746;49.230;9.220;2023-06-01T00:46:37;6.47;;;2.60;;
17259;SDS011;8746;49.230;9.220;2023-06-01T00:49:03;4.60;;;2.40;;
17259;SDS011;8746;49.230;9.220;2023-06-01T00:51:28;4.43;;;2.30;;
17259;SDS011;8746;49.230;9.220;2023-06-01T00:53:54;2.77;;;2.33;;
17259;SDS011;8746;49.230;9.220;2023-06-01T00:56:20;3.63;;;2.30;;
17259;SDS011;8746;49.230;9.220;2023-06-01T00:58:47;6.30;;;2.60;;
17259;SDS011;8746;49.230;9.220;2023-06-01T01:01:12;5.47;;;2.53;;
17259;SDS011;8746;49.230;9.220;2023-06-01T01:03:44;3.17;;;2.50;;
17259;SDS011;8746;49.230;9.220;2023-06-01T01:09:10;2.77;;;2.43;;
17259;SDS011;8746;49.230;9.220;2023-06-01T01:12:14;3.27;;;2.60;;
17259;SDS011;8746;49.230;9.220;2023-06-01T01:15:05;2.67;;;2.30;;
17259;SDS011;8746;49.230;9.220;2023-06-01T01:17:39;5.53;;;2.70;;
17259;SDS011;8746;49.230;9.220;2023-06-01T01:20:24;4.07;;;2.67;;
17259;SDS011;8746;49.230;9.220;2023-06-01T01:23:02;3.00;;;2.40;;
17259;SDS011;8746;49.230;9.220;2023-06-01T01:28:57;3.27;;;2.50;;
17259;SDS011;8746;49.230;9.220;2023-06-01T01:31:39;4.77;;;2.67;;
17259;SDS011;8746;49.230;9.220;2023-06-01T01:34:05;7.57;;;2.73;;
17259;SDS011;8746;49.230;9.220;2023-06-01T01:36:32;4.17;;;2.67;;
17259;SDS011;8746;49.230;9.220;2023-06-01T01:38:58;3.87;;;2.40;;
17259;SDS011;8746;49.230;9.220;2023-06-01T01:41:24;4.13;;;2.50;;
17259;SDS011;8746;49.230;9.220;2023-06-01T01:43:50;5.20;;;2.73;;
17259;SDS011;8746;49.230;9.220;2023-06-01T01:46:23;5.37;;;2.60;;
17259;SDS011;8746;49.230;9.220;2023-06-01T01:51:57;3.63;;;2.30;;
17259;SDS011;8746;49.230;9.220;2023-06-01T01:54:42;4.40;;;2.23;;
17259;SDS011;8746;49.230;9.220;2023-06-01T01:57:09;3.60;;;2.23;;
17259;SDS011;8746;49.230;9.220;2023-06-01T01:59:37;3.47;;;2.23;;
17259;SDS011;8746;49.230;9.220;2023-06-01T02:02:03;4.57;;;2.20;;
17259;SDS011;8746;49.230;9.220;2023-06-01T02:04:29;3.93;;;2.37;;
17259;SDS011;8746;49.230;9.220;2023-06-01T02:06:55;5.73;;;2.27;;
17259;SDS011;8746;49.230;9.220;2023-06-01T02:09:20;4.13;;;2.20;;
17259;SDS011;8746;49.230;9.220;2023-06-01T02:11:48;2.47;;;2.20;;
17259;SDS011;8746;49.230;9.220;2023-06-01T02:14:14;8.97;;;3.03;;
17259;SDS011;8746;49.230;9.220;2023-06-01T02:16:39;3.83;;;2.30;;
17259;SDS011;8746;49.230;9.220;2023-06-01T02:19:05;4.53;;;2.60;;
17259;SDS011;8746;49.230;9.220;2023-06-01T02:21:30;3.40;;;2.03;;
17259;SDS011;8746;49.230;9.220;2023-06-01T02:23:56;2.70;;;2.30;;
17259;SDS011;8746;49.230;9.220;2023-06-01T02:26:29;5.60;;;2.50;;
17259;SDS011;8746;49.230;9.220;2023-06-01T02:28:55;4.87;;;2.20;;
17259;SDS011;8746;49.230;9.220;2023-06-01T02:31:21;4.50;;;2.53;;
17259;SDS011;8746;49.230;9.220;2023-06-01T02:33:46;2.33;;;2.10;;
17259;SDS011;8746;49.230;9.220;2023-06-01T02:36:11;4.17;;;2.60;;
17259;SDS011;8746;49.230;9.220;2023-06-01T02:38:37;2.67;;;2.17;;
17259;SDS011;8746;49.230;9.220;2023-06-01T02:41:02;4.27;;;2.57;;
17259;SDS011;8746;49.230;9.220;2023-06-01T02:43:27;4.57;;;2.40;;
17259;SDS011;8746;49.230;9.220;2023-06-01T02:45:53;2.63;;;2.43;;
17259;SDS011;8746;49.230;9.220;2023-06-01T02:48:18;3.47;;;2.53;;
17259;SDS011;8746;49.230;9.220;2023-06-01T02:50:43;3.97;;;2.20;;
17259;SDS011;8746;49.230;9.220;2023-06-01T02:53:09;3.23;;;2.40;;
17259;SDS011;8746;49.230;9.220;2023-06-01T02:55:34;3.77;;;2.27;;
17259;SDS011;8746;49.230;9.220;2023-06-01T02:57:59;3.40;;;2.40;;
17259;SDS011;8746;49.230;9.220;2023-06-01T03:00:25;3.53;;;2.53;;
17259;SDS011;8746;49.230;9.220;2023-06-01T03:02:52;3.97;;;2.70;;
17259;SDS011;8746;49.230;9.220;2023-06-01T03:05:17;4.10;;;2.67;;
17259;SDS011;8746;49.230;9.220;2023-06-01T03:07:46;4.07;;;2.43;;
17259;SDS011;8746;49.230;9.220;2023-06-01T03:10:12;3.17;;;2.57;;
17259;SDS011;8746;49.230;9.220;2023-06-01T03:12:38;3.27;;;2.33;;
17259;SDS011;8746;49.230;9.220;2023-06-01T03:15:04;4.80;;;2.60;;
17259;SDS011;8746;49.230;9.220;2023-06-01T03:17:30;4.00;;;2.50;;
17259;SDS011;8746;49.230;9.220;2023-06-01T03:19:56;4.17;;;2.30;;
17259;SDS011;8746;49.230;9.220;2023-06-01T03:22:22;3.83;;;2.60;;
17259;SDS011;8746;49.230;9.220;2023-06-01T03:24:47;4.33;;;2.80;;
17259;SDS011;8746;49.230;9.220;2023-06-01T03:27:14;3.70;;;2.63;;
17259;SDS011;8746;49.230;9.220;2023-06-01T03:29:44;3.07;;;2.70;;
17259;SDS011;8746;49.230;9.220;2023-06-01T03:32:09;3.17;;;2.60;;
17259;SDS011;8746;49.230;9.220;2023-06-01T03:34:35;4.87;;;2.70;;
17259;SDS011;8746;49.230;9.220;2023-06-01T03:37:01;3.43;;;2.70;;
17259;SDS011;8746;49.230;9.220;2023-06-01T03:39:29;3.73;;;2.73;;
17259;SDS011;8746;49.230;9.220;2023-06-01T03:41:58;2.83;;;2.60;;
17259;SDS011;8746;49.230;9.220;2023-06-01T03:44:24;6.80;;;2.80;;
17259;SDS011;8746;49.230;9.220;2023-06-01T03:46:50;2.93;;;2.47;;
17259;SDS011;8746;49.230;9.220;2023-06-01T03:49:15;2.87;;;2.47;;
17259;SDS011;8746;49.230;9.220;2023-06-01T03:51:41;5.33;;;2.60;;
17259;SDS011;8746;49.230;9.220;2023-06-01T03:54:06;2.97;;;2.47;;
17259;SDS011;8746;49.230;9.220;2023-06-01T03:56:31;5.17;;;2.67;;
17259;SDS011;8746;49.230;9.220;2023-06-01T03:58:57;3.97;;;2.70;;
17259;SDS011;8746;49.230;9.220;2023-06-01T04:01:23;3.87;;;2.63;;
17259;SDS011;8746;49.230;9.220;2023-06-01T04:03:48;3.77;;;2.40;;
17259;SDS011;8746;49.230;9.220;2023-06-01T04:06:14;4.23;;;2.70;;
17259;SDS011;8746;49.230;9.220;2023-06-01T04:08:45;4.73;;;2.77;;
17259;SDS011;8746;49.230;9.220;2023-06-01T04:11:15;3.63;;;2.67;;
17259;SDS011;8746;49.230;9.220;2023-06-01T04:13:41;5.80;;;2.90;;
17259;SDS011;8746;49.230;9.220;2023-06-01T04:16:08;5.20;;;2.57;;
17259;SDS011;8746;49.230;9.220;2023-06-01T04:18:34;3.43;;;2.63;;
17259;SDS011;8746;49.230;9.220;2023-06-01T04:21:00;4.00;;;2.43;;
17259;SDS011;8746;49.230;9.220;2023-06-01T04:23:25;4.07;;;2.60;;
17259;SDS011;8746;49.230;9.220;2023-06-01T04:25:51;3.30;;;2.80;;
17259;SDS011;8746;49.230;9.220;2023-06-01T04:28:16;4.83;;;3.00;;
17259;SDS011;8746;49.230;9.220;2023-06-01T04:30:42;4.13;;;2.57;;
17259;SDS011;8746;49.230;9.220;2023-06-01T04:33:09;7.83;;;2.80;;
17259;SDS011;8746;49.230;9.220;2023-06-01T04:35:35;4.70;;;2.80;;
17259;SDS011;8746;49.230;9.220;2023-06-01T04:38:01;4.07;;;2.77;;
17259;SDS011;8746;49.230;9.220;2023-06-01T04:40:27;3.43;;;3.10;;
17259;SDS011;8746;49.230;9.220;2023-06-01T04:42:53;3.47;;;2.57;;
17259;SDS011;8746;49.230;9.220;2023-06-01T04:45:21;3.00;;;2.70;;
17259;SDS011;8746;49.230;9.220;2023-06-01T04:47:48;6.80;;;2.67;;
17259;SDS011;8746;49.230;9.220;2023-06-01T04:50:15;6.00;;;3.07;;
17259;SDS011;8746;49.230;9.220;2023-06-01T04:52:41;4.83;;;2.63;;
17259;SDS011;8746;49.230;9.220;2023-06-01T04:55:07;3.83;;;2.50;;
17259;SDS011;8746;49.230;9.220;2023-06-01T04:57:34;4.17;;;2.70;;
17259;SDS011;8746;49.230;9.220;2023-06-01T05:00:00;4.50;;;2.87;;
17259;SDS011;8746;49.230;9.220;2023-06-01T05:02:28;5.43;;;2.70;;
17259;SDS011;8746;49.230;9.220;2023-06-01T05:04:54;3.23;;;2.50;;
17259;SDS011;8746;49.230;9.220;2023-06-01T05:07:20;7.37;;;2.53;;
17259;SDS011;8746;49.230;9.220;2023-06-01T05:09:46;3.30;;;2.80;;
17259;SDS011;8746;49.230;9.220;2023-06-01T05:12:12;3.50;;;2.43;;
17259;SDS011;8746;49.230;9.220;2023-06-01T05:14:37;5.97;;;2.87;;
17259;SDS011;8746;49.230;9.220;2023-06-01T05:17:02;3.00;;;2.47;;
17259;SDS011;8746;49.230;9.220;2023-06-01T05:19:28;2.93;;;2.67;;
17259;SDS011;8746;49.230;9.220;2023-06-01T05:21:53;6.03;;;2.70;;
17259;SDS011;8746;49.230;9.220;2023-06-01T05:24:19;4.93;;;2.70;;
17259;SDS011;8746;49.230;9.220;2023-06-01T05:26:44;6.07;;;2.40;;
17259;SDS011;8746;49.230;9.220;2023-06-01T05:29:10;2.93;;;2.30;;
17259;SDS011;8746;49.230;9.220;2023-06-01T05:31:36;3.77;;;2.60;;
17259;SDS011;8746;49.230;9.220;2023-06-01T05:34:01;4.00;;;2.53;;
17259;SDS011;8746;49.230;9.220;2023-06-01T05:36:27;4.33;;;2.40;;
17259;SDS011;8746;49.230;9.220;2023-06-01T05:38:52;5.00;;;2.40;;
17259;SDS011;8746;49.230;9.220;2023-06-01T05:41:17;4.00;;;2.60;;
17259;SDS011;8746;49.230;9.220;2023-06-01T05:43:43;3.13;;;2.67;;
17259;SDS011;8746;49.230;9.220;2023-06-01T05:46:08;5.33;;;2.63;;
17259;SDS011;8746;49.230;9.220;2023-06-01T05:48:33;3.90;;;2.33;;
17259;SDS011;8746;49.230;9.220;2023-06-01T05:50:59;5.70;;;2.37;;
17259;SDS011;8746;49.230;9.220;2023-06-01T05:53:24;4.70;;;2.43;;
17259;SDS011;8746;49.230;9.220;2023-06-01T05:55:53;3.47;;;2.47;;
17259;SDS011;8746;49.230;9.220;2023-06-01T05:58:18;6.60;;;2.23;;
17259;SDS011;8746;49.230;9.220;2023-06-01T06:00:43;4.77;;;2.70;;
17259;SDS011;8746;49.230;9.220;2023-06-01T06:03:09;2.93;;;2.27;;
17259;SDS011;8746;49.230;9.220;2023-06-01T06:05:34;5.00;;;2.33;;
17259;SDS011;8746;49.230;9.220;2023-06-01T06:08:00;5.07;;;2.60;;
17259;SDS011;8746;49.230;9.220;2023-06-01T06:10:26;3.63;;;2.50;;
17259;SDS011;8746;49.230;9.220;2023-06-01T06:12:51;3.33;;;2.40;;
17259;SDS011;8746;49.230;9.220;2023-06-01T06:15:17;2.57;;;2.20;;
17259;SDS011;8746;49.230;9.220;2023-06-01T06:17:42;5.93;;;2.37;;
17259;SDS011;8746;49.230;9.220;2023-06-01T06:20:08;3.97;;;2.37;;
17259;SDS011;8746;49.230;9.220;2023-06-01T06:22:35;4.80;;;2.47;;
17259;SDS011;8746;49.230;9.220;2023-06-01T06:25:01;2.57;;;2.10;;
17259;SDS011;8746;49.230;9.220;2023-06-01T06:27:27;5.83;;;2.30;;
17259;SDS011;8746;49.230;9.220;2023-06-01T06:29:52;4.20;;;2.10;;
17259;SDS011;8746;49.230;9.220;2023-06-01T06:32:17;3.80;;;2.17;;
17259;SDS011;8746;49.230;9.220;2023-06-01T06:34:45;5.67;;;2.10;;
17259;SDS011;8746;49.230;9.220;2023-06-01T06:37:10;2.90;;;2.30;;
17259;SDS011;8746;49.230;9.220;2023-06-01T06:39:36;6.73;;;2.50;;
17259;SDS011;8746;49.230;9.220;2023-06-01T06:42:02;6.20;;;2.67;;
17259;SDS011;8746;49.230;9.220;2023-06-01T06:44:28;5.83;;;2.50;;
17259;SDS011;8746;49.230;9.220;2023-06-01T06:46:54;3.53;;;2.03;;
17259;SDS011;8746;49.230;9.220;2023-06-01T06:49:19;3.00;;;2.40;;
17259;SDS011;8746;49.230;9.220;2023-06-01T06:51:45;3.00;;;1.83;;
17259;SDS011;8746;49.230;9.220;2023-06-01T06:54:11;2.53;;;2.10;;
17259;SDS011;8746;49.230;9.220;2023-06-01T06:56:37;4.20;;;2.07;;
17259;SDS011;8746;49.230;9.220;2023-06-01T06:59:02;2.63;;;2.30;;
17259;SDS011;8746;49.230;9.220;2023-06-01T07:01:28;2.50;;;2.23;;
17259;SDS011;8746;49.230;9.220;2023-06-01T07:03:53;3.77;;;2.20;;
17259;SDS011;8746;49.230;9.220;2023-06-01T07:06:20;5.43;;;2.63;;
17259;SDS011;8746;49.230;9.220;2023-06-01T07:08:46;2.10;;;1.80;;
17259;SDS011;8746;49.230;9.220;2023-06-01T07:11:11;3.27;;;2.07;;
17259;SDS011;8746;49.230;9.220;2023-06-01T07:13:36;2.67;;;1.90;;
17259;SDS011;8746;49.230;9.220;2023-06-01T07:16:02;2.73;;;2.17;;
17259;SDS011;8746;49.230;9.220;2023-06-01T07:18:29;3.50;;;1.90;;
17259;SDS011;8746;49.230;9.220;2023-06-01T07:20:55;3.80;;;2.23;;
17259;SDS011;8746;49.230;9.220;2023-06-01T07:23:20;5.93;;;2.13;;
17259;SDS011;8746;49.230;9.220;2023-06-01T07:25:46;4.67;;;2.20;;
17259;SDS011;8746;49.230;9.220;2023-06-01T07:28:11;6.70;;;2.30;;
17259;SDS011;8746;49.230;9.220;2023-06-01T07:30:37;3.77;;;2.67;;
17259;SDS011;8746;49.230;9.220;2023-06-01T07:33:02;2.50;;;2.20;;
17259;SDS011;8746;49.230;9.220;2023-06-01T07:35:30;4.83;;;2.40;;
17259;SDS011;8746;49.230;9.220;2023-06-01T07:37:57;3.80;;;2.20;;
17259;SDS011;8746;49.230;9.220;2023-06-01T07:40:23;3.33;;;2.30;;
17259;SDS011;8746;49.230;9.220;2023-06-01T07:42:48;3.83;;;2.27;;
17259;SDS011;8746;49.230;9.220;2023-06-01T07:45:13;2.70;;;2.37;;
17259;SDS011;8746;49.230;9.220;2023-06-01T07:47:39;3.10;;;2.00;;
17259;SDS011;8746;49.230;9.220;2023-06-01T07:50:05;4.40;;;2.28;;
17259;SDS011;8746;49.230;9.220;2023-06-01T07:52:31;6.60;;;2.40;;
17259;SDS011;8746;49.230;9.220;2023-06-01T07:54:57;3.13;;;2.30;;
17259;SDS011;8746;49.230;9.220;2023-06-01T07:57:22;5.83;;;2.43;;
17259;SDS011;8746;49.230;9.220;2023-06-01T07:59:48;5.45;;;2.13;;
17259;SDS011;8746;49.230;9.220;2023-06-01T08:02:14;3.33;;;2.37;;
17259;SDS011;8746;49.230;9.220;2023-06-01T08:04:39;2.63;;;2.20;;
17259;SDS011;8746;49.230;9.220;2023-06-01T08:07:04;4.10;;;2.40;;
17259;SDS011;8746;49.230;9.220;2023-06-01T08:09:32;4.28;;;2.10;;
17259;SDS011;8746;49.230;9.220;2023-06-01T08:11:58;6.85;;;2.15;;
17259;SDS011;8746;49.230;9.220;2023-06-01T08:14:24;3.43;;;1.97;;
17259;SDS011;8746;49.230;9.220;2023-06-01T08:16:49;3.63;;;2.33;;
17259;SDS011;8746;49.230;9.220;2023-06-01T08:19:16;5.10;;;2.30;;
17259;SDS011;8746;49.230;9.220;2023-06-01T08:21:42;3.25;;;2.33;;
17259;SDS011;8746;49.230;9.220;2023-06-01T08:24:07;4.18;;;2.40;;
17259;SDS011;8746;49.230;9.220;2023-06-01T08:26:34;4.68;;;2.30;;
17259;SDS011;8746;49.230;9.220;2023-06-01T08:29:00;4.15;;;2.25;;
17259;SDS011;8746;49.230;9.220;2023-06-01T08:31:25;5.60;;;2.50;;
17259;SDS011;8746;49.230;9.220;2023-06-01T08:33:51;4.95;;;2.63;;
17259;SDS011;8746;49.230;9.220;2023-06-01T08:36:17;2.80;;;2.17;;
17259;SDS011;8746;49.230;9.220;2023-06-01T08:38:44;4.72;;;2.35;;
17259;SDS011;8746;49.230;9.220;2023-06-01T08:41:26;3.83;;;2.10;;
17259;SDS011;8746;49.230;9.220;2023-06-01T08:44:02;3.90;;;2.10;;
17259;SDS011;8746;49.230;9.220;2023-06-01T08:46:28;3.00;;;2.38;;
17259;SDS011;8746;49.230;9.220;2023-06-01T08:48:56;2.85;;;2.40;;
17259;SDS011;8746;49.230;9.220;2023-06-01T08:51:23;4.47;;;2.40;;
17259;SDS011;8746;49.230;9.220;2023-06-01T08:53:50;3.65;;;2.45;;
17259;SDS011;8746;49.230;9.220;2023-06-01T08:56:16;2.53;;;2.10;;
17259;SDS011;8746;49.230;9.220;2023-06-01T08:58:43;2.55;;;2.30;;
17259;SDS011;8746;49.230;9.220;2023-06-01T09:01:09;3.10;;;2.33;;
17259;SDS011;8746;49.230;9.220;2023-06-01T09:03:49;2.30;;;2.10;;
17259;SDS011;8746;49.230;9.220;2023-06-01T09:06:16;3.45;;;2.47;;
17259;SDS011;8746;49.230;9.220;2023-06-01T09:08:42;3.08;;;2.05;;
17259;SDS011;8746;49.230;9.220;2023-06-01T09:11:09;5.28;;;2.33;;
17259;SDS011;8746;49.230;9.220;2023-06-01T09:13:38;2.80;;;2.50;;
17259;SDS011;8746;49.230;9.220;2023-06-01T09:16:05;4.63;;;2.10;;
17259;SDS011;8746;49.230;9.220;2023-06-01T09:18:31;3.25;;;2.20;;
17259;SDS011;8746;49.230;9.220;2023-06-01T09:21:09;2.40;;;2.20;;
17259;SDS011;8746;49.230;9.220;2023-06-01T09:23:38;3.40;;;2.30;;
17259;SDS011;8746;49.230;9.220;2023-06-01T09:26:07;2.67;;;2.30;;
17259;SDS011;8746;49.230;9.220;2023-06-01T09:28:56;4.22;;;2.17;;
17259;SDS011;8746;49.230;9.220;2023-06-01T09:34:10;2.20;;;2.00;;
17259;SDS011;8746;49.230;9.220;2023-06-01T09:36:46;2.38;;;2.00;;
17259;SDS011;8746;49.230;9.220;2023-06-01T09:39:13;4.35;;;2.05;;
17259;SDS011;8746;49.230;9.220;2023-06-01T09:41:46;3.05;;;2.20;;
17259;SDS011;8746;49.230;9.220;2023-06-01T09:44:21;4.95;;;2.20;;
17259;SDS011;8746;49.230;9.220;2023-06-01T09:46:55;3.20;;;2.10;;
17259;SDS011;8746;49.230;9.220;2023-06-01T09:49:25;2.40;;;2.15;;
17259;SDS011;8746;49.230;9.220;2023-06-01T09:52:07;3.13;;;2.10;;
17259;SDS011;8746;49.230;9.220;2023-06-01T09:54:45;2.80;;;2.20;;
17259;SDS011;8746;49.230;9.220;2023-06-01T09:57:12;5.88;;;2.25;;
17259;SDS011;8746;49.230;9.220;2023-06-01T09:59:45;3.35;;;2.08;;
17259;SDS011;8746;49.230;9.220;2023-06-01T10:02:12;2.80;;;2.00;;
17259;SDS011;8746;49.230;9.220;2023-06-01T10:04:40;3.28;;;2.15;;
17259;SDS011;8746;49.230;9.220;2023-06-01T10:07:07;3.42;;;2.08;;
17259;SDS011;8746;49.230;9.220;2023-06-01T10:09:33;2.95;;;1.90;;
17259;SDS011;8746;49.230;9.220;2023-06-01T10:12:01;2.13;;;1.92;;
17259;SDS011;8746;49.230;9.220;2023-06-01T10:14:28;3.55;;;2.20;;
17259;SDS011;8746;49.230;9.220;2023-06-01T10:16:53;2.33;;;1.90;;
17259;SDS011;8746;49.230;9.220;2023-06-01T10:19:20;3.15;;;2.00;;
17259;SDS011;8746;49.230;9.220;2023-06-01T10:21:46;2.85;;;2.17;;
17259;SDS011;8746;49.230;9.220;2023-06-01T10:24:13;1.88;;;1.63;;
17259;SDS011;8746;49.230;9.220;2023-06-01T10:26:52;3.25;;;2.10;;
17259;SDS011;8746;49.230;9.220;2023-06-01T10:29:26;3.67;;;2.08;;
17259;SDS011;8746;49.230;9.220;2023-06-01T10:31:54;2.50;;;2.10;;
17259;SDS011;8746;49.230;9.220;2023-06-01T10:34:35;2.95;;;2.25;;
17259;SDS011;8746;49.230;9.220;2023-06-01T10:39:28;3.58;;;1.70;;
17259;SDS011;8746;49.230;9.220;2023-06-01T10:42:43;3.65;;;1.90;;
17259;SDS011;8746;49.230;9.220;2023-06-01T10:52:28;3.55;;;1.90;;
17259;SDS011;8746;49.230;9.220;2023-06-01T10:54:54;2.88;;;1.90;;
17259;SDS011;8746;49.230;9.220;2023-06-01T10:57:40;3.78;;;2.05;;
17259;SDS011;8746;49.230;9.220;2023-06-01T11:00:21;3.33;;;1.95;;
17259;SDS011;8746;49.230;9.220;2023-06-01T11:05:38;4.82;;;1.95;;
17259;SDS011;8746;49.230;9.220;2023-06-01T11:13:17;2.88;;;1.90;;
17259;SDS011;8746;49.230;9.220;2023-06-01T11:21:23;2.60;;;2.00;;
17259;SDS011;8746;49.230;9.220;2023-06-01T11:26:34;3.53;;;1.67;;
17259;SDS011;8746;49.230;9.220;2023-06-01T11:29:07;3.47;;;1.75;;
17259;SDS011;8746;49.230;9.220;2023-06-01T11:31:34;4.47;;;1.90;;
17259;SDS011;8746;49.230;9.220;2023-06-01T11:34:01;2.22;;;1.70;;
17259;SDS011;8746;49.230;9.220;2023-06-01T11:36:27;4.53;;;1.80;;
17259;SDS011;8746;49.230;9.220;2023-06-01T11:38:53;2.13;;;1.60;;
17259;SDS011;8746;49.230;9.220;2023-06-01T11:41:21;3.05;;;2.03;;
17259;SDS011;8746;49.230;9.220;2023-06-01T11:43:56;3.78;;;1.83;;
17259;SDS011;8746;49.230;9.220;2023-06-01T11:46:22;2.33;;;1.60;;
17259;SDS011;8746;49.230;9.220;2023-06-01T11:49:04;2.13;;;1.73;;
17259;SDS011;8746;49.230;9.220;2023-06-01T11:51:31;3.53;;;1.85;;
17259;SDS011;8746;49.230;9.220;2023-06-01T11:54:02;2.75;;;1.60;;
17259;SDS011;8746;49.230;9.220;2023-06-01T11:56:29;2.45;;;1.63;;
17259;SDS011;8746;49.230;9.220;2023-06-01T11:59:00;3.53;;;1.80;;
17259;SDS011;8746;49.230;9.220;2023-06-01T12:01:27;1.80;;;1.70;;
17259;SDS011;8746;49.230;9.220;2023-06-01T12:03:53;2.58;;;1.60;;
17259;SDS011;8746;49.230;9.220;2023-06-01T12:06:21;2.95;;;1.67;;
17259;SDS011;8746;49.230;9.220;2023-06-01T12:08:49;2.22;;;1.98;;
17259;SDS011;8746;49.230;9.220;2023-06-01T12:11:26;1.83;;;1.70;;
17259;SDS011;8746;49.230;9.220;2023-06-01T12:13:56;4.28;;;1.85;;
17259;SDS011;8746;49.230;9.220;2023-06-01T12:16:23;3.17;;;1.80;;
17259;SDS011;8746;49.230;9.220;2023-06-01T12:18:50;2.33;;;1.80;;
17259;SDS011;8746;49.230;9.220;2023-06-01T12:21:16;3.78;;;1.67;;
17259;SDS011;8746;49.230;9.220;2023-06-01T12:23:42;2.78;;;1.58;;
17259;SDS011;8746;49.230;9.220;2023-06-01T12:26:08;1.73;;;1.50;;
17259;SDS011;8746;49.230;9.220;2023-06-01T12:28:53;1.88;;;1.65;;
17259;SDS011;8746;49.230;9.220;2023-06-01T12:31:20;4.00;;;1.80;;
17259;SDS011;8746;49.230;9.220;2023-06-01T12:33:45;2.50;;;1.73;;
17259;SDS011;8746;49.230;9.220;2023-06-01T12:36:29;4.13;;;1.92;;
17259;SDS011;8746;49.230;9.220;2023-06-01T12:38:59;2.75;;;1.60;;
17259;SDS011;8746;49.230;9.220;2023-06-01T12:41:27;2.33;;;1.90;;
17259;SDS011;8746;49.230;9.220;2023-06-01T12:43:54;2.65;;;1.55;;
17259;SDS011;8746;49.230;9.220;2023-06-01T12:46:20;2.22;;;1.55;;
17259;SDS011;8746;49.230;9.220;2023-06-01T12:48:47;1.70;;;1.50;;
17259;SDS011;8746;49.230;9.220;2023-06-01T12:51:13;1.60;;;1.50;;
17259;SDS011;8746;49.230;9.220;2023-06-01T12:53:40;3.00;;;1.75;;
17259;SDS011;8746;49.230;9.220;2023-06-01T12:56:07;2.78;;;2.00;;
17259;SDS011;8746;49.230;9.220;2023-06-01T12:58:32;2.20;;;1.73;;
17259;SDS011;8746;49.230;9.220;2023-06-01T13:00:58;2.75;;;1.73;;
17259;SDS011;8746;49.230;9.220;2023-06-01T13:03:23;3.47;;;1.63;;
17259;SDS011;8746;49.230;9.220;2023-06-01T13:05:49;3.45;;;1.58;;
17259;SDS011;8746;49.230;9.220;2023-06-01T13:08:16;1.50;;;1.40;;
17259;SDS011;8746;49.230;9.220;2023-06-01T13:10:41;3.42;;;1.70;;
17259;SDS011;8746;49.230;9.220;2023-06-01T13:13:07;2.28;;;1.48;;
17259;SDS011;8746;49.230;9.220;2023-06-01T13:15:33;1.92;;;1.50;;
17259;SDS011;8746;49.230;9.220;2023-06-01T13:17:59;4.30;;;1.73;;
17259;SDS011;8746;49.230;9.220;2023-06-01T13:20:24;1.52;;;1.40;;
17259;SDS011;8746;49.230;9.220;2023-06-01T13:22:49;5.18;;;1.73;;
17259;SDS011;8746;49.230;9.220;2023-06-01T13:25:14;3.55;;;1.80;;
17259;SDS011;8746;49.230;9.220;2023-06-01T13:27:40;3.20;;;1.55;;
17259;SDS011;8746;49.230;9.220;2023-06-01T13:30:05;1.73;;;1.50;;
17259;SDS011;8746;49.230;9.220;2023-06-01T13:32:32;3.15;;;1.40;;
17259;SDS011;8746;49.230;9.220;2023-06-01T13:34:58;1.70;;;1.60;;
17259;SDS011;8746;49.230;9.220;2023-06-01T13:37:23;1.70;;;1.40;;
17259;SDS011;8746;49.230;9.220;2023-06-01T13:39:48;1.80;;;1.60;;
17259;SDS011;8746;49.230;9.220;2023-06-01T13:42:15;6.07;;;1.63;;
17259;SDS011;8746;49.230;9.220;2023-06-01T13:44:41;2.92;;;1.60;;
17259;SDS011;8746;49.230;9.220;2023-06-01T13:47:10;2.30;;;1.45;;
17259;SDS011;8746;49.230;9.220;2023-06-01T13:49:36;1.50;;;1.40;;
17259;SDS011;8746;49.230;9.220;2023-06-01T13:52:01;5.22;;;1.63;;
17259;SDS011;8746;49.230;9.220;2023-06-01T13:54:26;2.03;;;1.50;;
17259;SDS011;8746;49.230;9.220;2023-06-01T13:56:52;2.45;;;1.60;;
17259;SDS011;8746;49.230;9.220;2023-06-01T13:59:17;2.53;;;1.50;;
17259;SDS011;8746;49.230;9.220;2023-06-01T14:01:42;2.30;;;1.83;;
17259;SDS011;8746;49.230;9.220;2023-06-01T14:04:08;2.60;;;1.30;;
17259;SDS011;8746;49.230;9.220;2023-06-01T14:06:33;1.92;;;1.50;;
17259;SDS011;8746;49.230;9.220;2023-06-01T14:08:59;2.55;;;1.50;;
17259;SDS011;8746;49.230;9.220;2023-06-01T14:11:25;1.92;;;1.70;;
17259;SDS011;8746;49.230;9.220;2023-06-01T14:13:52;3.00;;;1.52;;
17259;SDS011;8746;49.230;9.220;2023-06-01T14:16:17;1.70;;;1.60;;
17259;SDS011;8746;49.230;9.220;2023-06-01T14:18:43;1.55;;;1.45;;
17259;SDS011;8746;49.230;9.220;2023-06-01T14:21:08;2.40;;;1.58;;
17259;SDS011;8746;49.230;9.220;2023-06-01T14:23:34;3.40;;;1.50;;
17259;SDS011;8746;49.230;9.220;2023-06-01T14:26:00;1.75;;;1.48;;
17259;SDS011;8746;49.230;9.220;2023-06-01T14:28:25;1.70;;;1.60;;
17259;SDS011;8746;49.230;9.220;2023-06-01T14:30:51;1.67;;;1.58;;
17259;SDS011;8746;49.230;9.220;2023-06-01T14:33:16;4.78;;;1.75;;
17259;SDS011;8746;49.230;9.220;2023-06-01T14:35:41;2.78;;;1.58;;
17259;SDS011;8746;49.230;9.220;2023-06-01T14:38:07;1.80;;;1.70;;
17259;SDS011;8746;49.230;9.220;2023-06-01T14:40:32;3.10;;;1.55;;
17259;SDS011;8746;49.230;9.220;2023-06-01T14:42:57;3.45;;;1.90;;
17259;SDS011;8746;49.230;9.220;2023-06-01T14:45:23;1.63;;;1.52;;
17259;SDS011;8746;49.230;9.220;2023-06-01T14:47:48;2.47;;;1.55;;
17259;SDS011;8746;49.230;9.220;2023-06-01T14:50:14;13.20;;;2.60;;
17259;SDS011;8746;49.230;9.220;2023-06-01T14:52:39;4.45;;;1.90;;
17259;SDS011;8746;49.230;9.220;2023-06-01T14:55:05;1.73;;;1.45;;
17259;SDS011;8746;49.230;9.220;2023-06-01T14:57:30;2.03;;;1.80;;
17259;SDS011;8746;49.230;9.220;2023-06-01T14:59:55;3.22;;;1.58;;
17259;SDS011;8746;49.230;9.220;2023-06-01T15:02:21;2.72;;;1.42;;
17259;SDS011;8746;49.230;9.220;2023-06-01T15:04:46;3.33;;;1.80;;
17259;SDS011;8746;49.230;9.220;2023-06-01T15:07:11;1.70;;;1.55;;
17259;SDS011;8746;49.230;9.220;2023-06-01T15:09:37;3.20;;;1.50;;
17259;SDS011;8746;49.230;9.220;2023-06-01T15:12:02;2.08;;;1.60;;
17259;SDS011;8746;49.230;9.220;2023-06-01T15:14:28;2.88;;;1.70;;
17259;SDS011;8746;49.230;9.220;2023-06-01T15:16:53;1.83;;;1.52;;
17259;SDS011;8746;49.230;9.220;2023-06-01T15:19:18;1.65;;;1.50;;
17259;SDS011;8746;49.230;9.220;2023-06-01T15:21:44;2.35;;;1.55;;
17259;SDS011;8746;49.230;9.220;2023-06-01T15:24:09;3.60;;;1.73;;
17259;SDS011;8746;49.230;9.220;2023-06-01T15:26:35;1.80;;;1.70;;
17259;SDS011;8746;49.230;9.220;2023-06-01T15:29:00;2.10;;;1.50;;
17259;SDS011;8746;49.230;9.220;2023-06-01T15:31:25;1.92;;;1.75;;
17259;SDS011;8746;49.230;9.220;2023-06-01T15:33:51;1.70;;;1.60;;
17259;SDS011;8746;49.230;9.220;2023-06-01T15:36:16;2.55;;;1.90;;
17259;SDS011;8746;49.230;9.220;2023-06-01T15:38:41;3.30;;;1.77;;